Date,TemperatureHighF,TemperatureAvgF,TemperatureLowF,DewpointHighF,DewpointAvgF,DewpointLowF,HumidityHigh,HumidityAvg,HumidityLow,PressureMaxIn,PressureMinIn,WindSpeedMaxMPH,WindSpeedAvgMPH,GustSpeedMaxMPH,PrecipitationSumIn
2013-1-1,26,23,19,16,13,10,69,65,60,30.51,30.40,10,2,10,0.00
2013-1-2,26,22,17,19,15,9,78,73,69,30.52,30.41,10,1,10,0.00
2013-1-3,28,26,21,22,19,14,79,75,71,30.47,30.37,13,2,13,0.00
2013-1-4,32,28,25,24,21,18,79,73,69,30.50,30.30,20,8,20,0.00
2013-1-5,35,27,16,29,22,11,87,79,72,30.60,30.30,6,0,6,0.00
2013-1-6,34,33,30,31,28,22,88,83,72,30.63,30.21,8,0,8,0.00
2013-1-7,36,31,28,26,23,22,79,71,57,30.67,30.42,10,3,10,0.00
2013-1-8,39,32,27,31,25,22,79,75,70,30.57,30.44,6,0,6,0.00
2013-1-9,43,37,29,32,28,22,80,70,55,30.78,30.29,22,6,22,0.00
2013-1-10,42,33,24,31,25,18,82,73,61,30.92,30.53,5,0,5,0.00
2013-1-11,49,41,33,46,38,28,91,89,81,30.53,30.08,12,1,12,0.00
2013-1-12,55,46,39,46,39,30,91,76,55,30.32,30.12,18,3,18,0.00
2013-1-13,39,34,26,32,30,20,87,84,71,30.40,30.18,15,0,15,0.00
2013-1-14,28,22,15,20,14,9,79,72,64,30.78,30.40,15,4,15,0.00
2013-1-15,29,21,13,20,14,7,81,74,64,30.78,30.51,8,0,8,0.00
2013-1-16,34,25,15,27,19,10,82,77,63,30.51,30.09,18,4,18,0.00
2013-1-17,31,23,16,26,15,6,82,71,63,30.70,30.31,12,0,12,0.00
2013-1-18,34,21,5,25,13,-2,77,72,65,30.78,30.21,10,2,10,0.00
2013-1-19,41,37,33,34,30,24,83,74,68,30.23,29.85,18,3,18,0.00
2013-1-20,34,20,13,29,11,5,84,69,62,30.54,29.86,25,6,25,0.00
2013-1-21,15,12,4,8,3,-4,76,67,58,30.50,30.32,15,4,15,0.00
2013-1-22,10,5,0,0,-4,-8,70,65,59,30.63,30.47,13,3,13,0.00
2013-1-23,17,10,2,10,3,-5,77,73,67,30.63,30.42,8,1,8,0.00
2013-1-24,17,11,6,6,2,-1,77,69,55,30.98,30.53,3,0,3,0.00
2013-1-25,23,17,11,15,10,3,79,74,69,30.86,30.36,0,0,0,0.00
2013-1-26,32,22,13,20,13,6,81,72,57,30.78,30.40,4,0,4,0.00
2013-1-27,30,22,12,22,15,5,84,74,63,30.81,30.47,5,0,5,0.00
2013-1-28,38,33,27,35,30,22,89,87,84,30.47,30.19,7,1,8,0.00
2013-1-29,52,41,32,50,38,29,92,90,87,30.38,29.76,3,0,3,0.00
2013-1-30,52,39,29,49,37,25,92,91,84,29.77,29.45,18,1,18,0.00
2013-1-31,29,22,18,25,14,10,84,72,61,30.24,29.62,22,8,22,0.00
2013-2-1,19,17,13,11,9,6,76,71,63,30.55,30.24,14,5,14,0.00
2013-2-2,19,14,6,11,7,0,79,72,60,30.50,30.37,6,0,6,0.00
2013-2-3,21,12,2,13,5,-4,78,74,67,30.40,30.21,61,1,61,0.00
2013-2-4,23,15,8,14,8,1,80,73,61,30.37,30.27,6,0,6,0.00
2013-2-5,27,14,2,21,8,-4,81,75,71,30.35,30.11,7,0,7,0.00
2013-2-6,30,22,8,19,14,3,80,71,60,30.64,30.35,8,1,8,0.00
2013-2-7,30,27,25,24,22,19,86,80,73,30.62,30.32,0,0,0,0.00
2013-2-8,31,26,12,25,19,6,87,75,62,30.75,30.29,9,0,9,0.00
2013-2-9,31,14,-1,21,6,-8,78,71,61,30.81,30.62,6,0,6,0.00
2013-2-10,35,22,6,32,16,0,88,78,71,30.63,29.98,0,0,0,0.00
2013-2-11,39,36,32,36,30,26,90,81,73,30.18,29.84,22,8,22,0.00
2013-2-12,32,29,26,26,22,18,79,74,72,30.38,30.17,13,6,13,0.00
2013-2-13,35,30,26,27,24,19,80,77,73,30.29,30.10,7,0,7,0.00
2013-2-14,39,32,29,34,27,23,87,82,77,30.21,29.97,10,1,10,0.00
2013-2-15,29,25,19,23,16,11,78,71,62,30.50,30.21,9,2,9,0.00
2013-2-16,25,18,14,16,12,8,80,75,66,30.48,30.38,3,0,3,0.00
2013-2-17,26,14,1,12,5,-5,76,66,52,30.58,30.47,6,0,6,0.00
2013-2-18,40,28,11,33,18,3,84,66,52,30.53,29.88,7,0,7,0.00
2013-2-19,40,30,19,36,24,10,88,79,68,30.27,29.70,22,7,22,0.00
2013-2-20,24,20,15,13,11,8,74,68,61,30.62,30.26,11,2,11,0.00
2013-2-21,27,20,17,17,11,9,82,69,56,30.78,30.61,7,0,7,0.00
2013-2-22,28,25,21,25,20,16,85,82,77,30.65,30.21,3,0,3,0.00
2013-2-23,35,30,26,28,24,21,88,79,66,30.26,30.19,10,2,10,0.00
2013-2-24,40,31,26,29,23,21,85,73,55,30.52,30.24,4,0,4,0.00
2013-2-25,39,32,26,28,23,18,78,70,59,30.59,30.50,3,0,3,0.00
2013-2-26,36,30,23,29,24,17,87,77,69,30.53,29.99,8,1,8,0.00
2013-2-27,34,33,32,31,30,29,89,88,87,29.99,29.91,5,0,5,0.00
2013-2-28,36,33,29,30,27,20,89,79,69,30.39,29.98,9,1,9,0.00
2013-3-1,31,27,22,20,17,13,74,68,61,30.53,30.38,7,1,7,0.00
2013-3-2,28,23,20,18,14,12,75,69,63,30.52,30.45,7,0,7,0.00
2013-3-3,34,22,11,20,13,6,78,67,54,30.46,30.37,7,0,7,0.00
2013-3-4,37,24,10,21,13,4,77,64,47,30.52,30.45,3,0,3,0.00
2013-3-5,32,24,13,23,17,7,81,74,66,30.53,30.31,8,0,8,0.00
2013-3-6,42,34,28,31,26,23,81,75,64,30.59,30.34,7,0,7,0.00
2013-3-7,38,31,26,27,22,16,83,68,54,30.79,30.58,6,0,6,0.00
2013-3-8,46,30,18,29,20,12,78,65,49,30.88,30.77,5,0,5,0.00
2013-3-9,45,33,22,30,24,16,80,70,56,30.78,30.39,3,0,3,0.00
2013-3-10,44,38,32,40,34,28,89,83,79,30.39,30.16,3,0,3,0.00
2013-3-11,46,41,36,44,38,32,91,89,84,30.16,29.82,15,2,15,0.00
2013-3-12,36,32,28,32,27,23,86,80,71,30.25,29.97,13,5,13,0.00
2013-3-13,36,29,23,23,18,14,81,67,49,30.56,30.23,10,2,10,0.00
2013-3-14,41,30,19,25,18,12,76,62,48,30.62,30.40,10,2,10,0.00
2013-3-15,42,35,30,30,25,19,77,68,51,30.41,30.23,12,3,12,0.00
2013-3-16,33,28,23,23,20,16,80,74,64,30.43,30.21,6,0,6,0.00
2013-3-17,30,24,19,16,12,8,75,61,44,30.68,30.43,7,0,7,0.00
2013-3-18,32,26,19,28,20,10,86,76,67,30.60,29.92,6,0,6,0.00
2013-3-19,32,25,22,28,18,15,86,73,64,30.25,29.92,21,8,21,0.00
2013-3-20,31,23,17,17,13,10,72,66,56,30.30,30.23,15,5,15,0.00
2013-3-21,33,26,17,22,17,10,79,70,62,30.31,30.20,9,1,9,0.00
2013-3-22,39,30,24,26,20,16,72,67,58,30.41,30.30,10,2,10,0.00
2013-3-23,38,32,28,27,23,20,73,68,61,30.50,30.40,6,0,6,0.00
2013-3-24,37,31,25,26,22,19,80,71,61,30.45,30.13,8,0,8,0.00
2013-3-25,40,34,30,27,25,22,76,69,57,30.34,30.08,11,1,11,0.00
2013-3-26,43,36,31,32,27,24,78,69,59,30.50,30.34,8,0,8,0.00
2013-3-27,50,38,30,32,26,22,75,62,47,30.57,30.48,9,1,9,0.00
2013-3-28,55,40,29,33,25,21,73,57,39,30.64,30.56,7,0,7,0.00
2013-3-29,56,39,26,33,24,18,76,56,38,30.65,30.55,8,1,8,0.00
2013-3-30,56,39,26,32,24,18,76,57,34,30.59,30.23,10,1,10,0.00
2013-3-31,58,44,35,42,34,27,84,69,53,30.23,29.98,14,3,14,0.00
2013-4-1,35,30,27,27,16,0,71,56,46,30.45,30.09,13,2,13,0.00
2013-4-2,41,31,22,20,16,13,75,55,38,30.60,30.45,13,1,13,0.00
2013-4-3,47,33,22,23,17,12,67,51,37,30.79,30.60,9,0,9,0.00
2013-4-4,57,41,28,31,24,16,67,51,37,30.68,30.27,61,3,61,0.00
2013-4-5,49,38,31,29,22,15,72,53,35,30.59,30.33,7,0,7,0.00
2013-4-6,48,38,29,29,23,19,68,56,42,30.60,30.05,7,0,7,0.00
2013-4-7,52,44,38,45,34,28,79,68,48,30.42,29.88,18,4,18,0.00
2013-4-8,44,37,28,38,32,23,88,82,70,30.42,30.06,2,0,2,0.00
2013-4-9,41,39,37,38,36,33,89,88,86,30.47,30.27,5,0,5,0.00
2013-4-10,39,37,36,35,33,30,89,86,77,30.45,30.30,8,0,8,0.00
2013-4-11,37,34,32,30,29,28,88,84,73,30.43,30.11,8,0,8,0.00
2013-4-12,39,35,0,35,31,-3,89,87,83,30.14,29.93,9,1,9,0.00
2013-4-13,40,36,34,34,30,26,87,78,66,30.33,30.10,19,5,19,0.00
2013-4-14,45,36,0,33,29,-7,86,75,60,30.47,30.29,5,0,6,0.00
2013-4-15,64,49,34,53,42,29,87,77,64,30.29,30.18,9,1,9,0.00
2013-4-16,59,49,42,47,38,29,87,66,45,30.65,30.25,13,2,13,0.00
2013-4-17,48,41,36,36,33,29,87,74,59,30.75,30.43,5,0,5,0.00
2013-4-18,59,49,40,56,46,36,91,89,87,30.43,29.81,9,0,9,0.00
2013-4-19,59,42,34,55,35,25,90,76,65,30.07,29.71,21,9,21,0.00
2013-4-20,38,34,28,26,21,18,72,61,49,30.81,30.06,13,3,13,0.00
2013-4-21,53,37,0,31,24,-14,75,59,41,30.97,30.79,5,0,5,0.00
2013-4-22,66,48,32,40,31,23,72,54,33,30.81,30.53,5,0,5,0.00
2013-4-23,59,48,38,49,39,30,86,72,58,30.54,30.17,6,0,6,0.00
2013-4-24,48,39,34,34,30,25,85,71,47,30.45,30.23,10,1,10,0.00
2013-4-25,52,42,35,40,30,26,83,64,46,30.68,30.38,19,2,19,0.00
2013-4-26,62,47,30,39,33,24,81,59,41,30.78,30.62,10,1,10,0.00
2013-4-27,74,58,43,49,40,0,73,54,37,30.66,30.47,7,1,7,0.00
2013-4-28,72,55,45,51,43,34,79,64,46,30.47,30.23,6,0,6,0.00
2013-4-29,76,62,52,57,51,47,84,68,49,30.29,30.21,6,0,6,0.00
2013-4-30,74,63,55,60,53,48,89,72,58,30.39,30.25,10,0,10,0.00
2013-5-1,80,65,56,60,53,50,81,67,43,30.58,30.37,3,0,3,0.00
2013-5-2,83,68,56,57,52,49,80,59,39,30.61,30.46,5,0,5,0.00
2013-5-3,74,62,55,55,46,37,70,56,36,30.51,30.43,2,0,2,0.00
2013-5-4,76,63,51,51,43,37,72,50,33,30.50,30.43,6,0,6,0.00
2013-5-5,76,61,45,50,43,37,81,54,30,30.50,30.41,5,0,5,0.00
2013-5-6,78,61,44,49,40,34,78,52,27,30.47,30.36,5,0,5,0.00
2013-5-7,80,61,44,53,43,36,76,53,32,30.47,30.38,4,0,4,0.00
2013-5-8,83,63,48,54,44,38,70,52,34,30.42,30.32,7,0,7,0.00
2013-5-9,81,60,0,56,44,-19,78,58,37,30.35,30.24,3,0,3,0.00
2013-5-10,58,45,40,46,39,36,86,81,59,30.31,30.24,9,0,9,0.00
2013-5-11,60,48,39,50,41,33,85,76,65,30.27,30.06,11,3,11,0.00
2013-5-12,47,40,36,35,30,0,80,69,58,30.46,30.19,11,4,11,0.00
2013-5-13,58,36,0,34,25,-15,76,65,39,30.52,30.45,8,2,8,0.00
2013-5-14,58,44,0,45,34,-6,79,66,59,30.11,30.06,0,0,0,0.00
2013-5-15,71,52,0,53,44,-18,82,77,41,30.14,29.88,6,1,6,0.00
2013-5-16,79,63,49,48,42,37,72,49,28,30.44,30.24,8,0,8,0.00
2013-5-17,62,52,41,45,41,35,82,68,51,30.56,30.44,2,0,2,0.00
2013-5-18,73,59,49,52,46,42,80,63,44,30.56,30.41,6,0,6,0.00
2013-5-19,82,60,50,61,50,42,81,70,49,30.43,30.23,0,0,0,0.00
2013-5-20,90,70,62,70,62,55,87,75,50,30.27,30.11,14,0,14,0.00
2013-5-21,79,69,62,67,62,58,91,79,64,30.20,30.07,8,1,8,0.00
2013-5-22,67,64,59,64,60,55,91,88,83,30.10,29.98,6,0,6,0.00
2013-5-23,59,50,44,56,46,38,90,86,79,30.57,30.03,7,0,7,0.00
2013-5-24,60,47,36,43,37,31,83,68,45,30.75,30.56,6,0,6,0.00
2013-5-25,69,51,37,48,39,32,86,66,40,30.80,30.66,6,0,6,0.00
2013-5-26,72,53,38,48,40,33,84,63,36,30.74,30.62,5,0,5,0.00
2013-5-27,73,55,39,47,41,34,84,61,36,30.64,30.39,5,0,5,0.00
2013-5-28,71,59,52,66,54,45,91,85,68,30.40,30.13,2,0,2,0.00
2013-5-29,80,69,63,68,63,59,91,82,64,30.34,30.13,9,1,9,0.00
2013-5-30,86,72,61,73,64,58,90,78,59,30.37,30.28,10,0,10,0.00
2013-5-31,82,73,66,67,64,61,88,76,58,30.31,30.18,8,1,8,0.00
2013-6-1,82,72,66,66,63,61,86,75,54,30.21,30.03,14,2,14,0.00
2013-6-2,66,59,46,61,51,38,88,75,62,30.40,29.99,9,1,9,0.00
2013-6-3,70,55,40,50,42,35,84,64,41,30.47,30.36,9,1,9,0.00
2013-6-4,75,58,42,51,43,36,82,60,40,30.59,30.47,1,0,1,0.00
2013-6-5,69,58,52,47,44,42,74,60,43,30.60,30.43,5,0,5,0.00
2013-6-6,68,58,53,52,47,43,77,66,52,30.44,30.31,5,0,5,0.00
2013-6-7,70,58,48,55,48,43,83,70,55,30.34,30.27,6,0,6,0.00
2013-6-8,74,60,48,58,51,43,87,73,55,30.45,30.31,4,0,4,0.00
2013-6-9,79,64,48,61,54,44,88,70,53,30.49,30.34,0,0,0,0.00
2013-6-10,66,63,59,62,58,53,90,83,67,30.34,30.15,0,0,0,0.00
2013-6-11,84,71,62,68,62,57,91,76,57,30.27,30.16,8,1,8,0.00
2013-6-12,82,67,60,69,61,54,90,82,61,30.29,30.17,3,0,3,0.00
2013-6-13,79,72,64,60,57,55,78,60,48,30.20,30.14,7,1,7,0.00
2013-6-14,63,57,54,53,50,48,82,78,66,30.49,30.34,2,0,2,0.00
2013-6-15,81,64,51,62,53,44,81,69,51,30.44,30.25,8,0,8,0.00
2013-6-16,84,72,63,69,61,55,89,70,45,30.26,30.11,13,2,13,0.00
2013-6-17,82,64,54,66,56,50,84,75,54,30.37,30.22,7,1,7,0.00
2013-6-18,71,60,50,52,48,41,85,65,45,30.49,30.34,6,0,6,0.00
2013-6-19,78,60,44,54,46,39,84,63,39,30.57,30.47,6,0,6,0.00
2013-6-20,84,58,48,60,49,43,85,74,44,30.57,30.51,3,0,3,0.00
2013-6-21,86,71,53,69,58,48,86,67,49,30.56,30.37,6,0,6,0.00
2013-6-22,90,73,68,74,63,60,79,72,54,30.43,30.32,6,0,6,0.00
2013-6-23,91,76,61,74,65,57,88,71,50,30.42,30.28,10,2,10,0.00
2013-6-24,89,78,70,73,66,60,83,70,55,30.40,30.26,8,2,8,0.00
2013-6-25,80,73,69,69,65,60,86,75,65,30.29,30.19,61,2,61,0.00
2013-6-26,89,75,63,73,66,59,89,74,53,30.24,30.12,3,0,3,0.00
2013-6-27,89,72,67,74,66,63,89,83,59,30.14,30.02,6,0,6,0.00
2013-6-28,79,67,63,68,62,59,91,86,68,30.03,29.93,5,0,5,0.00
2013-6-29,71,64,60,63,60,57,91,86,70,30.16,29.96,4,0,4,0.00
2013-6-30,78,66,55,64,57,48,89,74,55,30.39,30.15,3,0,3,0.00
2013-7-1,77,64,54,57,49,40,78,60,45,30.51,30.38,6,0,6,0.00
2013-7-2,74,63,55,59,50,41,82,64,51,30.50,30.44,6,0,6,0.00
2013-7-3,82,65,53,68,57,48,84,77,60,30.49,30.40,3,0,3,0.00
2013-7-4,83,70,60,67,61,56,88,74,55,30.49,30.43,6,0,6,0.00
2013-7-5,86,74,62,71,63,57,87,71,54,30.48,30.40,5,0,5,0.00
2013-7-6,90,76,63,72,65,58,86,70,50,30.47,30.34,4,0,4,0.00
2013-7-7,83,74,69,72,67,63,85,78,65,30.39,30.31,4,0,4,0.00
2013-7-8,79,73,70,72,68,66,89,85,74,30.37,30.32,7,0,7,0.00
2013-7-9,86,75,68,74,69,65,90,83,63,30.36,30.21,4,0,4,0.00
2013-7-10,84,75,62,71,65,54,91,73,51,30.34,30.13,9,2,9,0.00
2013-7-11,79,66,57,64,57,52,86,72,52,30.48,30.34,4,0,4,0.00
2013-7-12,80,66,51,64,56,46,87,71,49,30.58,30.47,3,0,3,0.00
2013-7-13,86,70,56,68,60,52,88,71,49,30.60,30.52,0,0,0,0.00
2013-7-14,93,75,60,74,64,55,88,72,49,30.65,30.58,1,0,1,0.00
2013-7-15,95,82,68,77,71,64,89,71,53,30.67,30.59,0,0,0,0.00
2013-7-16,97,81,72,79,72,68,89,75,55,30.67,30.57,7,1,7,0.00
2013-7-17,95,81,72,79,73,67,85,76,55,30.63,30.50,7,0,7,0.00
2013-7-18,96,83,71,77,72,67,89,71,50,30.53,30.27,9,2,9,0.00
2013-7-19,93,83,72,76,71,64,82,69,55,30.28,30.05,18,5,18,0.00
2013-7-20,87,72,65,66,62,54,87,72,48,30.35,30.11,11,0,11,0.00
2013-7-21,82,67,54,61,54,47,79,64,43,30.41,30.32,1,0,1,0.00
2013-7-22,85,72,62,71,63,57,89,74,56,30.36,30.11,6,0,6,0.00
2013-7-23,77,69,58,67,59,45,89,72,54,30.31,30.03,8,0,8,0.00
2013-7-24,73,66,50,55,51,44,81,61,49,30.44,30.31,5,0,5,0.00
2013-7-25,82,69,49,61,54,44,86,61,43,30.49,30.41,6,0,6,0.00
2013-7-26,75,65,57,64,58,50,88,77,65,30.44,30.25,6,0,6,0.00
2013-7-27,81,66,57,66,59,50,90,79,57,30.25,30.12,11,2,11,0.00
2013-7-28,70,60,52,57,52,47,85,76,61,30.32,30.17,11,2,11,0.00
2013-7-29,72,62,56,59,55,52,88,78,62,30.55,30.29,6,1,6,0.00
2013-7-30,81,64,50,63,55,45,88,73,51,30.61,30.49,4,0,4,0.00
2013-7-31,69,64,60,64,59,55,90,86,80,30.49,30.27,4,0,4,0.00
2013-8-1,81,69,61,64,59,52,90,73,49,30.29,30.24,9,1,9,0.00
2013-8-2,80,66,56,64,58,50,87,76,59,30.29,30.17,11,2,11,0.00
2013-8-3,79,64,55,61,55,51,88,72,49,30.45,30.28,6,0,6,0.00
2013-8-4,74,62,54,57,52,49,83,71,49,30.56,30.46,5,0,5,0.00
2013-8-5,75,61,51,61,54,46,86,77,56,30.49,30.32,5,0,5,0.00
2013-8-6,78,67,59,67,61,54,87,81,69,30.32,30.22,7,0,7,0.00
2013-8-7,84,72,62,71,64,59,90,77,57,30.32,30.13,14,1,14,0.00
2013-8-8,80,66,56,59,55,52,86,69,45,30.42,30.32,3,0,3,0.00
2013-8-9,60,57,54,53,51,49,83,81,78,30.38,30.35,0,0,0,0.00
2013-8-10,80,63,52,60,52,47,82,68,47,30.53,30.40,3,0,3,0.00
2013-8-11,80,64,54,61,55,49,86,73,50,30.51,30.41,4,0,4,0.00
2013-8-12,82,70,62,67,61,56,85,72,56,30.44,30.20,6,0,6,0.00
2013-8-13,66,59,54,56,52,46,78,75,69,30.33,30.27,6,0,6,0.00
2013-8-14,72,55,49,54,46,43,84,72,49,30.55,30.47,7,0,7,0.00
2013-8-15,78,61,47,60,50,42,84,69,45,30.53,30.42,8,0,8,0.00
2013-8-16,83,65,51,63,53,45,84,67,42,30.58,30.47,2,0,2,0.00
2013-8-17,86,66,52,64,54,46,86,69,42,30.65,30.55,2,0,2,0.00
2013-8-18,86,67,51,65,55,46,86,69,42,30.61,30.47,3,0,3,0.00
2013-8-19,86,69,55,65,57,49,84,68,47,30.50,30.38,7,1,7,0.00
2013-8-20,87,71,58,69,60,53,85,71,49,30.49,30.41,9,1,9,0.00
2013-8-21,89,75,63,72,64,58,86,69,50,30.47,30.32,8,1,8,0.00
2013-8-22,81,72,64,69,63,57,84,75,64,30.47,30.30,7,0,7,0.00
2013-8-23,81,66,55,62,55,48,80,68,49,30.58,30.46,5,0,5,0.00
2013-8-24,87,67,51,66,55,46,87,69,43,30.70,30.58,6,0,6,0.00
2013-8-25,88,73,59,69,61,53,84,69,53,30.65,30.45,11,2,11,0.00
2013-8-26,85,76,71,73,67,64,84,73,62,30.48,30.32,8,2,8,0.00
2013-8-27,75,72,70,72,68,65,90,87,81,30.36,30.23,14,0,14,0.00
2013-8-28,71,70,69,69,68,67,93,92,92,30.23,30.19,0,0,0,0.00
2013-8-30,88,78,69,72,70,64,85,75,58,30.27,30.09,10,3,10,0.00
2013-8-31,76,70,63,65,63,58,88,80,64,30.26,30.17,0,0,0,0.00
2013-9-1,80,68,58,68,62,55,91,82,67,30.25,30.10,0,0,0,0.00
2013-9-2,69,64,58,65,56,51,89,76,64,30.31,30.11,8,0,8,0.00
2013-9-3,79,65,55,60,53,49,83,68,46,30.39,30.29,9,1,9,0.00
2013-9-4,83,66,56,68,57,49,88,74,58,30.50,30.36,8,2,8,0.00
2013-9-5,71,58,50,52,47,43,80,67,44,30.66,30.50,4,0,4,0.00
2013-9-6,78,60,44,59,50,39,86,71,48,30.65,30.40,6,0,6,0.00
2013-9-7,75,68,62,69,61,54,89,81,73,30.41,30.25,6,0,6,0.00
2013-9-8,72,64,52,66,56,46,90,74,54,30.51,30.32,5,0,5,0.00
2013-9-9,79,64,51,69,58,46,86,81,69,30.46,30.20,1,0,1,0.00
2013-9-10,92,80,72,73,69,64,87,70,48,30.33,30.19,10,3,10,0.00
2013-9-11,84,76,67,69,65,60,84,69,58,30.38,30.30,8,1,8,0.00
2013-9-12,79,66,56,62,58,43,87,78,49,30.40,30.26,6,0,6,0.00
2013-9-13,62,53,45,44,41,38,80,65,44,30.53,30.38,6,0,6,0.00
2013-9-14,71,54,40,50,42,34,85,68,42,30.57,30.43,8,1,8,0.00
2013-9-15,60,56,53,54,50,46,88,80,73,30.51,30.40,4,0,4,0.00
2013-9-16,56,52,47,52,48,41,88,86,78,30.71,30.51,5,0,5,0.00
2013-9-17,69,56,35,51,45,30,87,69,48,30.80,30.58,3,0,3,0.00
2013-9-18,79,58,40,61,48,35,87,72,47,30.59,30.37,6,0,6,0.00
2013-9-19,78,66,59,69,60,52,89,80,70,30.39,30.22,6,0,6,0.00
2013-9-20,73,68,65,68,64,60,92,86,78,30.24,30.08,10,2,10,0.00
2013-9-21,67,60,52,61,52,44,86,76,58,30.28,30.06,7,0,7,0.00
2013-9-22,60,52,45,45,42,40,82,70,53,30.49,30.28,5,0,5,0.00
2013-9-23,64,51,44,49,42,38,82,72,54,30.59,30.48,2,0,2,0.00
2013-9-24,44,41,38,38,36,33,83,82,79,30.53,30.51,0,0,0,0.00
2013-9-25,70,54,41,56,45,36,89,75,51,30.42,30.37,3,0,3,0.00
2013-9-26,75,56,44,61,47,39,90,74,45,30.53,30.40,0,0,0,0.00
2013-9-27,78,58,43,60,49,38,88,74,48,30.63,30.53,0,0,0,0.00
2013-9-28,80,62,47,62,52,42,90,73,46,30.57,30.33,6,0,6,0.00
2013-9-29,70,61,52,56,53,47,86,76,47,30.38,30.28,4,0,4,0.00
2013-9-30,70,58,51,57,51,46,89,79,58,30.40,30.28,6,0,6,0.00
2013-10-1,74,61,47,64,54,43,90,80,66,30.32,30.23,11,2,11,0.00
2013-10-2,76,62,51,58,52,45,88,71,39,30.47,30.27,4,0,4,0.00
2013-10-3,80,60,44,66,54,40,88,80,62,30.45,30.26,7,0,7,0.00
2013-10-4,70,65,59,67,61,56,91,89,86,30.45,30.25,2,0,2,0.00
2013-10-5,66,62,59,63,59,56,92,92,90,30.44,30.20,0,0,0,0.00
2013-10-6,69,63,53,66,60,50,93,91,87,30.20,30.04,9,0,9,0.00
2013-10-7,61,53,48,52,48,43,89,82,64,30.45,30.03,9,2,9,0.00
2013-10-8,70,53,40,54,45,37,90,75,50,30.64,30.44,5,0,5,0.00
2013-10-9,72,54,41,55,45,36,88,73,48,30.69,30.57,2,0,2,0.00
2013-10-10,71,53,39,56,45,35,89,75,50,30.61,30.50,2,0,2,0.00
2013-10-11,70,53,39,55,44,35,89,74,50,30.55,30.45,3,0,3,0.00
2013-10-12,78,58,42,59,49,37,89,73,47,30.47,30.35,6,0,6,0.00
2013-10-13,66,56,0,57,46,-9,83,71,52,30.74,30.43,7,0,7,0.00
2013-10-14,61,52,41,44,41,36,84,69,51,30.81,30.65,5,0,5,0.00
2013-10-15,42,39,36,36,34,31,84,82,79,30.65,30.53,0,0,0,0.00
2013-10-16,59,54,49,55,49,44,90,85,81,30.25,30.13,11,2,11,0.00
2013-10-17,52,49,44,46,45,41,89,85,79,30.26,30.11,4,0,4,0.00
2013-10-18,61,48,41,49,42,37,89,79,61,30.24,30.16,12,2,12,0.00
2013-10-19,55,47,41,42,39,33,84,75,56,30.24,30.07,13,2,13,0.00
2013-10-20,54,46,40,43,39,35,87,76,56,30.25,30.11,8,1,8,0.00
2013-10-21,52,48,40,47,41,30,86,75,65,30.21,30.10,12,4,12,0.00
2013-10-22,49,41,34,37,32,26,76,69,61,30.25,30.19,12,3,12,0.00
2013-10-23,48,39,34,36,31,28,84,73,53,30.28,30.21,11,1,11,0.00
2013-10-24,49,38,32,36,31,28,85,76,60,30.52,30.27,10,2,10,0.00
2013-10-25,47,39,31,36,30,26,85,71,54,30.66,30.33,11,3,11,0.00
2013-10-26,47,43,37,41,35,30,83,74,62,30.35,30.07,22,4,22,0.00
2013-10-27,50,42,34,36,33,28,81,70,56,30.40,30.29,11,2,11,0.00
2013-10-28,44,40,35,34,31,26,78,70,61,30.81,30.37,6,0,6,0.00
2013-10-29,43,35,29,34,28,22,85,75,68,30.84,30.62,0,0,0,0.00
2013-10-30,57,42,30,47,37,26,88,81,68,30.62,30.27,2,0,2,0.00
2013-10-31,60,56,50,58,53,44,92,89,80,30.27,29.42,6,0,6,0.00
2013-11-1,59,49,46,56,45,42,92,86,81,30.03,29.41,20,6,20,0.00
2013-11-2,46,42,36,43,37,30,89,81,65,30.51,30.02,7,0,7,0.00
2013-11-3,44,37,29,36,30,24,85,77,68,30.81,30.51,0,0,0,0.00
2013-11-4,50,40,31,33,29,26,82,66,47,30.81,30.60,6,0,6,0.00
2013-11-5,59,51,44,48,42,32,77,72,65,30.67,30.46,3,0,3,0.00
2013-11-6,56,50,0,52,44,-2,90,83,70,30.46,30.05,13,2,13,0.00
2013-11-7,41,38,36,35,30,27,81,74,61,30.49,30.36,10,2,10,0.00
2013-11-8,44,36,30,32,27,23,80,70,57,30.62,30.46,9,2,9,0.00
2013-11-9,50,44,34,40,34,27,76,70,61,30.49,30.09,17,4,17,0.00
2013-11-10,46,41,34,34,30,25,73,65,55,30.61,30.22,14,3,14,0.00
2013-11-11,40,34,27,34,27,16,84,74,64,30.72,30.38,11,1,11,0.00
2013-11-12,35,28,24,24,18,16,79,67,53,30.90,30.72,9,1,9,0.00
2013-11-13,42,32,22,26,21,16,78,65,47,30.86,30.41,20,5,20,0.00
2013-11-14,47,39,32,33,28,24,73,65,56,30.42,30.26,12,4,12,0.00
2013-11-15,47,42,33,35,30,25,74,64,59,30.38,30.29,6,1,6,0.00
2013-11-16,54,43,30,48,37,24,86,78,72,30.42,30.07,5,0,5,0.00
2013-11-17,61,54,0,57,50,-3,91,88,80,30.07,29.46,22,2,22,0.00
2013-11-18,45,39,35,40,30,25,85,71,64,30.48,29.72,20,6,22,0.00
2013-11-19,40,34,27,26,23,20,75,64,54,30.77,30.49,4,0,4,0.00
2013-11-20,44,34,26,32,26,20,82,71,58,30.79,30.58,0,0,0,0.00
2013-11-21,46,40,0,39,34,-4,86,80,70,30.63,30.53,0,0,0,0.00
2013-11-22,42,34,0,38,28,0,88,76,67,30.74,30.51,8,0,8,0.00
2013-11-23,28,24,18,22,16,10,81,71,54,30.87,30.61,8,1,8,0.00
2013-11-24,25,20,15,15,12,8,77,69,62,30.93,30.67,11,1,11,0.00
2013-11-25,31,27,22,26,18,11,85,70,57,30.68,30.33,14,3,14,0.00
2013-11-26,34,31,26,29,26,18,86,83,74,30.39,30.29,11,0,11,0.00
2013-11-27,26,22,19,18,13,10,78,68,54,30.55,30.36,9,0,9,0.00
2013-11-28,25,20,17,19,14,11,80,78,71,30.65,30.55,0,0,0,0.00
2013-11-29,26,21,13,20,16,8,84,82,80,31.01,30.88,0,0,0,0.00
2013-11-30,40,32,20,30,25,16,84,76,68,30.89,30.40,5,0,5,0.00
2013-12-1,37,34,32,31,29,26,83,79,76,30.45,30.37,2,0,2,0.00
2013-12-2,38,33,28,28,26,22,81,75,65,30.39,30.26,0,0,0,0.00
2013-12-3,32,30,25,29,26,20,88,85,78,30.30,30.22,0,0,0,0.00
2013-12-4,52,36,0,49,34,-2,92,90,88,30.26,29.90,6,0,6,0.00
2013-12-5,52,38,27,49,30,18,92,73,60,30.48,29.89,22,7,22,0.00
2013-12-6,27,23,20,18,14,0,70,67,63,30.75,30.48,10,2,10,0.00
2013-12-7,23,19,10,12,9,3,71,65,60,30.96,30.74,11,2,11,0.00
2013-12-8,24,16,9,20,10,2,83,74,66,30.93,30.35,2,0,2,0.00
2013-12-9,29,24,15,25,18,6,85,78,66,30.42,30.18,21,4,21,0.00
2013-12-10,20,14,5,11,6,-2,76,71,65,30.49,30.21,13,4,13,0.00
2013-12-11,21,13,6,12,4,-2,78,69,58,30.76,30.49,11,2,11,0.00
2013-12-12,20,14,6,14,7,-1,77,74,71,30.77,30.45,16,4,16,0.00
2013-12-13,24,20,0,16,13,-5,79,73,68,30.71,30.44,9,1,9,0.00
2013-12-14,20,17,12,16,12,4,82,79,71,30.71,30.21,3,0,3,0.00
2013-12-15,24,18,10,18,12,2,83,77,69,30.33,30.13,12,2,12,0.00
2013-12-16,18,10,0,10,3,-6,78,71,61,30.55,30.33,22,0,22,0.00
2013-12-17,26,21,15,21,16,7,82,80,72,30.39,30.16,10,0,10,0.00
2013-12-18,28,25,21,21,18,12,82,75,65,30.43,30.17,13,2,13,0.00
2013-12-19,35,26,17,28,19,10,82,75,68,30.38,30.14,3,0,3,0.00
2013-12-20,31,29,27,28,26,23,88,87,82,30.30,30.14,0,0,0,0.00
2013-12-21,30,28,27,27,25,23,88,86,84,30.29,30.13,0,0,0,0.00
2013-12-22,30,27,22,26,23,17,87,84,78,30.37,30.02,0,0,0,0.00
2013-12-23,27,21,14,19,15,7,84,77,68,30.67,30.37,0,0,0,0.00
2013-12-24,17,10,4,8,3,-2,77,72,63,30.85,30.66,6,0,6,0.00
2013-12-25,24,18,7,19,13,1,83,79,75,30.82,30.41,6,0,6,0.00
2013-12-26,27,23,20,20,18,13,85,79,69,30.59,30.35,13,1,13,0.00
2013-12-27,35,27,21,30,22,17,86,82,74,30.64,30.31,22,1,22,0.00
2013-12-28,41,35,30,34,30,25,85,81,75,30.42,30.18,8,2,8,0.00
2013-12-29,36,29,17,30,22,8,84,75,66,30.40,30.08,6,0,6,0.00
2013-12-30,21,15,10,9,6,1,72,66,59,30.63,30.40,8,0,8,0.00
2013-12-31,17,13,10,8,5,3,76,70,63,30.69,30.40,14,2,14,0.00
2014-1-1,14,9,1,4,0,-6,74,67,57,30.79,30.68,2,0,2,0.00
2014-1-2,11,9,1,4,0,-7,73,67,60,30.70,30.57,8,0,8,0.00